Time;durP1;ratioP1;P1;durP2;ratioP2;P2;SDS_P1;SDS_P2;PMS_P1;PMS_P2;Temp;Humidity;BMP_temperature;BMP_pressure;BME280_temperature;BME280_humidity;BME280_pressure;Samples;Min_cycle;Max_cycle;Signal;HPM_P1;HPM_P2
2022/05/12 00:01:58;;;;;;;14.20;12.70;;;18.90;99.90;;;;;;5063703;28;20832;-70
2022/05/12 00:04:31;;;;;;;13.57;10.90;;;18.90;99.90;;;;;;5064401;28;20210;-69
2022/05/12 00:06:57;;;;;;;12.97;10.83;;;18.90;99.90;;;;;;5064850;28;20466;-69
2022/05/12 00:09:23;;;;;;;17.27;11.90;;;19.10;99.90;;;;;;5065507;28;20514;-69
2022/05/12 00:11:49;;;;;;;12.83;11.30;;;18.90;99.90;;;;;;5062652;28;20426;-69
2022/05/12 00:14:15;;;;;;;13.80;11.70;;;18.90;99.90;;;;;;5047395;28;20417;-68
2022/05/12 00:16:41;;;;;;;12.00;10.20;;;19.00;99.90;;;;;;5063309;28;20192;-69
2022/05/12 00:19:06;;;;;;;13.27;11.90;;;18.90;99.90;;;;;;5065377;28;20475;-68
2022/05/12 00:21:32;;;;;;;16.67;10.83;;;19.00;99.90;;;;;;5064149;28;20183;-69
2022/05/12 00:23:58;;;;;;;16.27;10.67;;;19.00;99.90;;;;;;5052360;28;20259;-70
2022/05/12 00:26:28;;;;;;;14.07;10.50;;;19.00;99.90;;;;;;5048057;28;20441;-69
2022/05/12 00:28:55;;;;;;;12.13;10.73;;;18.90;99.90;;;;;;5063849;28;20440;-69
2022/05/12 00:31:21;;;;;;;13.10;11.70;;;19.00;99.90;;;;;;5064330;28;20544;-69
2022/05/12 00:33:47;;;;;;;11.27;10.07;;;18.90;99.90;;;;;;5057478;28;20525;-68
2022/05/12 00:36:13;;;;;;;13.53;10.27;;;18.90;99.90;;;;;;5065970;28;20192;-69
2022/05/12 00:38:38;;;;;;;12.40;11.10;;;18.90;99.90;;;;;;5063698;28;20483;-69
2022/05/12 00:41:04;;;;;;;13.77;10.30;;;18.90;99.90;;;;;;5062552;28;20594;-68
2022/05/12 00:43:47;;;;;;;12.10;10.47;;;19.00;99.90;;;;;;5064524;28;20263;-69
2022/05/12 00:46:16;;;;;;;11.43;10.20;;;18.90;99.90;;;;;;5051913;28;20778;-68
2022/05/12 00:48:42;;;;;;;13.23;11.20;;;18.90;99.90;;;;;;5058688;28;20459;-69
2022/05/12 00:51:11;;;;;;;11.57;10.30;;;18.80;99.90;;;;;;5062651;28;20480;-69
2022/05/12 00:53:38;;;;;;;12.17;9.77;;;18.80;99.90;;;;;;5054168;28;20455;-69
2022/05/12 00:56:06;;;;;;;12.17;9.97;;;18.80;99.90;;;;;;5063691;28;20537;-69
2022/05/12 00:58:33;;;;;;;11.40;9.80;;;18.70;99.90;;;;;;5063723;28;20430;-69
2022/05/12 01:01:05;;;;;;;13.90;10.00;;;18.60;99.90;;;;;;5062907;28;20431;-68
2022/05/12 01:03:31;;;;;;;10.70;9.30;;;18.50;99.90;;;;;;5065677;28;20868;-69
2022/05/12 01:05:58;;;;;;;14.47;9.83;;;18.50;99.90;;;;;;5067268;28;20573;-70
2022/05/12 01:08:24;;;;;;;11.20;9.60;;;18.40;99.90;;;;;;5069429;28;20541;-69
2022/05/12 01:10:54;;;;;;;11.40;8.17;;;18.50;99.90;;;;;;5067177;28;20442;-69
2022/05/12 01:13:20;;;;;;;11.53;8.77;;;18.40;99.90;;;;;;5068347;28;20805;-71
2022/05/12 01:15:55;;;;;;;7.63;6.57;;;18.40;99.90;;;;;;5066359;28;20565;-68
2022/05/12 01:18:22;;;;;;;10.13;6.23;;;18.20;99.90;;;;;;5068759;28;20437;-69
2022/05/12 01:20:49;;;;;;;6.10;5.47;;;18.20;99.90;;;;;;5067169;28;20908;-69
2022/05/12 01:23:27;;;;;;;7.33;6.00;;;18.10;99.90;;;;;;5064398;28;20481;-69
2022/05/12 01:26:05;;;;;;;6.43;5.30;;;18.10;99.90;;;;;;5067784;28;20464;-68
2022/05/12 01:28:31;;;;;;;5.57;5.00;;;18.00;99.90;;;;;;5067249;28;20477;-68
2022/05/12 01:30:57;;;;;;;7.53;4.80;;;18.00;99.90;;;;;;5065701;28;20427;-69
2022/05/12 01:33:23;;;;;;;7.03;5.43;;;18.00;99.90;;;;;;5068142;28;20193;-69
2022/05/12 01:35:49;;;;;;;5.90;4.80;;;18.10;99.90;;;;;;5067632;28;20438;-68
2022/05/12 01:38:15;;;;;;;8.17;4.77;;;18.20;99.90;;;;;;5050682;28;20278;-69
2022/05/12 01:40:43;;;;;;;6.37;5.47;;;18.20;99.90;;;;;;5068690;28;20967;-70
2022/05/12 01:43:09;;;;;;;5.93;5.00;;;18.50;99.90;;;;;;5066266;28;20461;-70
2022/05/12 01:45:35;;;;;;;6.97;5.10;;;18.60;99.90;;;;;;5065741;28;20434;-69
2022/05/12 01:48:01;;;;;;;5.80;4.90;;;18.60;99.90;;;;;;5066039;28;20562;-70
2022/05/12 01:50:26;;;;;;;6.30;5.23;;;18.70;99.90;;;;;;5066622;28;20214;-69
2022/05/12 01:52:52;;;;;;;9.70;6.20;;;18.80;99.90;;;;;;5066017;28;20279;-69
2022/05/12 01:55:20;;;;;;;7.33;5.20;;;18.90;99.90;;;;;;5066462;28;20301;-69
2022/05/12 01:57:46;;;;;;;6.23;4.97;;;18.90;99.90;;;;;;5066042;28;20172;-69
2022/05/12 02:00:16;;;;;;;5.27;4.50;;;18.90;99.90;;;;;;5078812;28;20509;-69
2022/05/12 02:02:41;;;;;;;6.73;4.30;;;19.00;99.90;;;;;;5067025;28;20563;-70
2022/05/12 02:05:10;;;;;;;6.30;4.30;;;19.10;99.90;;;;;;5034742;28;21011;-68
2022/05/12 02:07:45;;;;;;;5.83;4.43;;;19.20;99.90;;;;;;5042620;28;20632;-69
2022/05/12 02:10:15;;;;;;;5.20;4.33;;;19.30;99.90;;;;;;5068889;28;20410;-69
2022/05/12 02:12:40;;;;;;;10.63;4.30;;;19.40;99.90;;;;;;5049459;28;20471;-68
2022/05/12 02:15:08;;;;;;;6.17;4.20;;;19.40;99.90;;;;;;5067501;28;20427;-69
2022/05/12 02:17:33;;;;;;;5.30;4.40;;;19.50;95.90;;;;;;5046569;28;20218;-69
2022/05/12 02:19:59;;;;;;;7.50;4.10;;;19.50;99.90;;;;;;5067463;28;20422;-69
2022/05/12 02:22:25;;;;;;;8.37;4.17;;;19.50;97.10;;;;;;5066344;28;20180;-70
2022/05/12 02:24:50;;;;;;;5.43;4.40;;;19.60;99.90;;;;;;5067888;28;20436;-68
2022/05/12 02:27:16;;;;;;;4.90;3.80;;;19.60;96.90;;;;;;5067901;28;20239;-68
2022/05/12 02:29:42;;;;;;;7.93;3.70;;;19.60;90.70;;;;;;5064494;28;20180;-68
2022/05/12 02:32:08;;;;;;;5.10;3.93;;;19.60;95.30;;;;;;5066119;28;20181;-68
2022/05/12 02:34:34;;;;;;;7.43;3.70;;;19.50;95.70;;;;;;5065735;28;20207;-69
2022/05/12 02:37:01;;;;;;;5.33;3.80;;;19.50;96.20;;;;;;5066578;28;20229;-69
2022/05/12 02:39:32;;;;;;;10.77;4.03;;;19.40;99.30;;;;;;5067594;28;20521;-69
2022/05/12 02:41:59;;;;;;;6.53;4.37;;;19.30;99.90;;;;;;5065413;28;20542;-69
2022/05/12 02:44:25;;;;;;;7.70;3.70;;;19.40;99.90;;;;;;5083015;28;20414;-69
2022/05/12 02:46:50;;;;;;;5.30;3.60;;;19.20;99.90;;;;;;5046500;28;20466;-69
2022/05/12 02:49:16;;;;;;;5.90;4.30;;;19.10;97.80;;;;;;5066964;28;20172;-69
2022/05/12 02:51:43;;;;;;;4.60;4.00;;;19.10;99.90;;;;;;5063949;28;20178;-69
2022/05/12 02:54:13;;;;;;;7.30;3.83;;;19.10;99.90;;;;;;5064899;28;20637;-69
2022/05/12 02:56:39;;;;;;;6.73;4.10;;;19.00;96.90;;;;;;5066280;28;20455;-69
2022/05/12 02:59:06;;;;;;;5.07;3.90;;;19.00;98.70;;;;;;5066712;28;20507;-69
2022/05/12 03:01:32;;;;;;;5.73;3.90;;;18.90;98.60;;;;;;5062315;28;20888;-69
2022/05/12 03:03:58;;;;;;;5.33;3.97;;;18.90;99.90;;;;;;5066219;28;20509;-69
2022/05/12 03:06:24;;;;;;;4.43;3.67;;;18.90;99.90;;;;;;5064625;28;20472;-69
2022/05/12 03:08:50;;;;;;;10.00;4.27;;;18.80;99.90;;;;;;5066717;28;20870;-68
2022/05/12 03:11:15;;;;;;;3.80;3.40;;;18.70;99.90;;;;;;5065002;28;20693;-68
2022/05/12 03:13:41;;;;;;;5.27;3.83;;;18.70;97.00;;;;;;5038185;28;20180;-68
2022/05/12 03:16:07;;;;;;;7.87;3.90;;;18.70;97.90;;;;;;5065735;28;20223;-68
2022/05/12 03:18:33;;;;;;;4.40;3.30;;;18.60;99.90;;;;;;5066145;28;20263;-68
2022/05/12 03:20:58;;;;;;;4.63;3.60;;;18.60;98.00;;;;;;5064698;28;20203;-69
2022/05/12 03:23:24;;;;;;;7.43;4.00;;;18.60;98.10;;;;;;5066052;28;20278;-69
2022/05/12 03:25:51;;;;;;;6.77;3.47;;;18.60;98.90;;;;;;5064940;28;20242;-69
2022/05/12 03:28:17;;;;;;;10.63;3.87;;;18.70;95.30;;;;;;5067622;28;20235;-69
2022/05/12 03:30:43;;;;;;;7.67;3.60;;;18.50;93.40;;;;;;5064524;28;20438;-69
2022/05/12 03:33:10;;;;;;;9.03;3.70;;;18.70;93.40;;;;;;5078055;28;20644;-69
2022/05/12 03:35:36;;;;;;;4.00;3.50;;;18.50;99.60;;;;;;5077502;28;20533;-69
2022/05/12 03:38:05;;;;;;;7.67;3.60;;;18.30;99.50;;;;;;5066046;28;20434;-69
2022/05/12 03:40:31;;;;;;;6.93;3.73;;;18.80;95.40;;;;;;5032160;28;20600;-69
2022/05/12 03:43:00;;;;;;;4.73;3.43;;;18.60;94.10;;;;;;5047894;28;20509;-69
2022/05/12 03:45:33;;;;;;;7.37;3.70;;;18.60;94.60;;;;;;5064093;28;20176;-69
2022/05/12 03:48:00;;;;;;;12.77;3.77;;;18.70;96.20;;;;;;5066466;28;20443;-69
2022/05/12 03:50:28;;;;;;;8.03;3.83;;;18.70;91.80;;;;;;5066085;28;20430;-69
2022/05/12 03:52:55;;;;;;;4.40;3.20;;;18.80;98.10;;;;;;5063805;28;20438;-69
2022/05/12 03:55:24;;;;;;;10.73;3.47;;;18.80;95.20;;;;;;5047961;28;20434;-68
2022/05/12 03:57:53;;;;;;;6.07;3.47;;;18.80;96.40;;;;;;5065960;28;20434;-69
2022/05/12 04:00:24;;;;;;;5.77;3.73;;;18.80;93.60;;;;;;5064100;28;20449;-69
2022/05/12 04:02:50;;;;;;;6.97;3.10;;;18.90;94.00;;;;;;5064891;28;20432;-68
2022/05/12 04:05:18;;;;;;;5.17;3.40;;;18.90;92.00;;;;;;5047113;28;20438;-68
2022/05/12 04:07:44;;;;;;;3.80;3.10;;;18.90;93.20;;;;;;5064151;28;20983;-68
2022/05/12 04:10:14;;;;;;;4.80;3.40;;;18.90;91.80;;;;;;5065408;28;20869;-69
2022/05/12 04:12:40;;;;;;;5.33;3.20;;;19.10;91.50;;;;;;5065293;28;20414;-69
2022/05/12 04:15:06;;;;;;;6.83;3.20;;;18.80;92.10;;;;;;5077866;28;20431;-69
2022/05/12 04:17:32;;;;;;;3.90;3.10;;;18.70;92.70;;;;;;5064101;28;20672;-69
2022/05/12 04:20:03;;;;;;;3.50;3.00;;;18.80;92.70;;;;;;5063393;28;20438;-68
2022/05/12 04:22:29;;;;;;;4.13;3.10;;;18.70;91.40;;;;;;5077281;28;20199;-68
2022/05/12 04:24:54;;;;;;;6.53;3.20;;;18.80;94.00;;;;;;5062924;28;20525;-69
2022/05/12 04:27:21;;;;;;;6.63;2.97;;;18.70;93.60;;;;;;5064899;28;20196;-69
2022/05/12 04:29:47;;;;;;;5.43;3.20;;;18.70;91.70;;;;;;5063384;28;20179;-69
2022/05/12 04:32:12;;;;;;;6.63;3.27;;;18.60;93.70;;;;;;5062508;28;20484;-68
2022/05/12 04:37:31;;;;;;;6.30;3.23;;;18.70;95.50;;;;;;5065807;28;20261;-69
2022/05/12 04:40:09;;;;;;;5.97;3.20;;;18.70;93.50;;;;;;5080109;28;20831;-68
2022/05/12 04:42:34;;;;;;;5.70;3.13;;;18.70;92.80;;;;;;5065219;28;20483;-69
2022/05/12 04:45:00;;;;;;;7.20;3.63;;;18.70;93.80;;;;;;5066625;28;20940;-68
2022/05/12 04:47:26;;;;;;;4.13;2.90;;;18.70;93.20;;;;;;5068128;28;20733;-69
2022/05/12 04:49:52;;;;;;;23.73;3.60;;;18.70;94.50;;;;;;5069549;28;20501;-69
2022/05/12 04:52:17;;;;;;;4.97;2.97;;;18.70;94.90;;;;;;5066719;28;20535;-69
2022/05/12 04:54:43;;;;;;;3.97;3.30;;;18.70;94.00;;;;;;5066897;28;20636;-68
2022/05/12 04:57:08;;;;;;;4.00;3.10;;;18.70;93.10;;;;;;5067676;28;20287;-69
2022/05/12 04:59:34;;;;;;;8.03;3.60;;;18.70;94.80;;;;;;5068798;28;20301;-69
2022/05/12 05:02:00;;;;;;;4.67;3.00;;;18.90;95.40;;;;;;5067158;28;20212;-70
2022/05/12 05:04:26;;;;;;;4.67;3.10;;;18.80;96.20;;;;;;5069046;28;20180;-71
2022/05/12 05:06:52;;;;;;;4.47;3.20;;;18.90;94.90;;;;;;5067191;28;20458;-69
2022/05/12 05:09:18;;;;;;;5.80;3.03;;;18.90;93.80;;;;;;5073719;28;20672;-69
2022/05/12 05:11:43;;;;;;;4.53;3.10;;;19.00;95.50;;;;;;5064798;28;20176;-69
2022/05/12 05:14:09;;;;;;;4.17;3.00;;;18.80;95.20;;;;;;5060222;28;20193;-69
2022/05/12 05:16:35;;;;;;;3.90;2.80;;;19.10;91.50;;;;;;5067468;28;20208;-69
2022/05/12 05:19:01;;;;;;;5.87;2.90;;;19.10;89.70;;;;;;5069409;28;20264;-69
2022/05/12 05:21:26;;;;;;;6.97;3.53;;;19.10;92.30;;;;;;5064499;28;20252;-69
2022/05/12 05:23:52;;;;;;;3.50;2.80;;;19.30;93.20;;;;;;5068464;28;20184;-69
2022/05/12 05:26:18;;;;;;;4.47;2.53;;;19.20;94.50;;;;;;5068930;28;20571;-69
2022/05/12 05:28:44;;;;;;;5.80;2.83;;;19.20;90.90;;;;;;5068365;28;20212;-69
2022/05/12 05:31:09;;;;;;;5.67;3.00;;;19.20;92.00;;;;;;5066667;28;20918;-69
2022/05/12 05:33:35;;;;;;;4.57;2.43;;;19.30;91.50;;;;;;5059250;28;20619;-70
2022/05/12 05:36:00;;;;;;;7.73;3.13;;;19.20;91.30;;;;;;5068164;28;20208;-70
2022/05/12 05:38:26;;;;;;;4.80;2.70;;;19.30;90.90;;;;;;5083262;28;20180;-70
2022/05/12 05:40:52;;;;;;;3.83;2.80;;;19.30;92.30;;;;;;5067585;28;20198;-68
2022/05/12 05:43:19;;;;;;;7.33;2.60;;;19.30;92.20;;;;;;5080842;28;20181;-69
2022/05/12 05:45:45;;;;;;;3.40;2.87;;;19.30;91.00;;;;;;5064223;28;20274;-69
2022/05/12 05:48:11;;;;;;;5.07;2.50;;;19.30;90.80;;;;;;5067728;28;20956;-69
2022/05/12 05:53:26;;;;;;;4.73;2.50;;;19.50;88.80;;;;;;5076701;28;20259;-69
2022/05/12 05:55:53;;;;;;;6.50;2.80;;;19.60;87.90;;;;;;5077571;28;20545;-70
2022/05/12 05:58:19;;;;;;;4.40;2.38;;;19.70;87.80;;;;;;5066045;28;20466;-70
2022/05/12 06:00:45;;;;;;;4.63;2.50;;;19.80;86.30;;;;;;5065581;28;20184;-70
2022/05/12 06:03:11;;;;;;;5.40;3.00;;;19.80;82.20;;;;;;5066080;28;20836;-70
2022/05/12 06:05:38;;;;;;;3.20;2.33;;;19.80;73.30;;;;;;5066425;28;20847;-70
2022/05/12 06:08:05;;;;;;;4.93;2.77;;;19.80;78.30;;;;;;5065824;28;20699;-70
2022/05/12 06:10:31;;;;;;;5.70;2.60;;;19.90;75.10;;;;;;5049724;28;20419;-69
2022/05/12 06:12:56;;;;;;;8.70;2.83;;;20.00;80.40;;;;;;5065453;28;20426;-71
2022/05/12 06:15:23;;;;;;;3.33;2.30;;;20.10;74.90;;;;;;5061825;28;20503;-70
2022/05/12 06:17:49;;;;;;;8.13;2.40;;;20.10;78.30;;;;;;5063451;28;20548;-70
2022/05/12 06:20:15;;;;;;;4.87;2.67;;;20.20;75.20;;;;;;5068253;28;20459;-70
2022/05/12 06:22:40;;;;;;;5.47;2.67;;;20.20;74.70;;;;;;5068213;28;20176;-70
2022/05/12 06:25:09;;;;;;;5.03;2.50;;;20.20;74.80;;;;;;5069583;28;20180;-70
2022/05/12 06:27:35;;;;;;;8.70;2.80;;;20.30;73.70;;;;;;5067642;28;20212;-71
2022/05/12 06:30:02;;;;;;;5.70;2.87;;;20.40;75.80;;;;;;5068115;28;20633;-70
2022/05/12 06:32:28;;;;;;;4.40;2.40;;;20.60;74.10;;;;;;5067422;28;20407;-70
2022/05/12 06:34:54;;;;;;;3.90;2.47;;;20.60;69.80;;;;;;5069438;28;20881;-70
2022/05/12 06:37:20;;;;;;;10.63;2.70;;;20.50;68.50;;;;;;5068319;28;20668;-70
2022/05/12 06:39:46;;;;;;;5.10;2.53;;;20.60;68.60;;;;;;5067468;28;20571;-70
2022/05/12 06:42:12;;;;;;;5.00;2.50;;;20.60;65.40;;;;;;5066768;28;20521;-70
2022/05/12 06:44:39;;;;;;;6.57;2.50;;;20.70;63.80;;;;;;5068988;28;20164;-70
2022/05/12 06:47:13;;;;;;;5.37;2.77;;;20.70;61.30;;;;;;5066378;28;20442;-70
2022/05/12 06:49:39;;;;;;;3.93;2.60;;;20.80;60.00;;;;;;5069016;28;20459;-69
2022/05/12 06:52:07;;;;;;;5.03;2.60;;;21.00;61.70;;;;;;5066166;28;20421;-70
2022/05/12 06:54:34;;;;;;;6.13;2.70;;;21.20;60.40;;;;;;5068582;28;20446;-70
2022/05/12 06:57:01;;;;;;;3.60;2.50;;;21.30;61.00;;;;;;5065071;28;20475;-70
2022/05/12 06:59:26;;;;;;;4.50;2.70;;;21.40;53.10;;;;;;5050880;28;20784;-70
2022/05/12 07:01:52;;;;;;;5.30;2.40;;;21.60;54.90;;;;;;5066609;28;20414;-70
2022/05/12 07:04:18;;;;;;;4.83;2.53;;;21.70;48.20;;;;;;5068612;28;20255;-70
2022/05/12 07:06:44;;;;;;;8.17;2.30;;;21.60;47.80;;;;;;5049953;28;20279;-70
2022/05/12 07:09:10;;;;;;;4.00;2.60;;;21.50;47.80;;;;;;5067276;28;20484;-70
2022/05/12 07:11:35;;;;;;;5.23;2.50;;;21.40;47.70;;;;;;5067660;28;20442;-70
2022/05/12 07:14:02;;;;;;;8.37;2.53;;;21.50;47.70;;;;;;5068255;28;20172;-70
2022/05/12 07:16:28;;;;;;;8.37;2.43;;;21.60;47.70;;;;;;5067287;28;20643;-70
2022/05/12 07:18:53;;;;;;;8.27;2.40;;;21.50;47.70;;;;;;5033617;28;20814;-70
2022/05/12 07:26:48;;;;;;;4.97;2.30;;;21.50;47.60;;;;;;5067676;28;20517;-70
2022/05/12 07:29:16;;;;;;;3.47;2.20;;;21.90;48.00;;;;;;5068113;28;20403;-70
2022/05/12 07:31:43;;;;;;;4.37;2.33;;;22.40;48.30;;;;;;5065314;28;20734;-70
2022/05/12 07:34:09;;;;;;;3.40;2.37;;;22.80;42.30;;;;;;5066612;28;20521;-70
2022/05/12 07:36:41;;;;;;;3.07;2.27;;;23.00;37.00;;;;;;5067468;28;20446;-70
2022/05/12 07:39:07;;;;;;;6.17;2.57;;;23.20;34.70;;;;;;5067998;28;21122;-70
2022/05/12 07:41:34;;;;;;;5.57;2.63;;;23.00;33.30;;;;;;5066988;28;20398;-72
2022/05/12 07:44:00;;;;;;;7.67;2.50;;;22.80;33.40;;;;;;5067253;28;20411;-70
2022/05/12 07:46:30;;;;;;;5.30;2.73;;;22.70;36.90;;;;;;5066591;28;20426;-70
2022/05/12 07:48:57;;;;;;;4.90;2.80;;;22.80;33.50;;;;;;5066837;28;20465;-70
2022/05/12 07:51:23;;;;;;;3.37;2.20;;;22.80;31.10;;;;;;5065194;28;20488;-70
2022/05/12 07:53:50;;;;;;;4.13;2.37;;;22.80;36.80;;;;;;5068053;28;20853;-70
2022/05/12 07:56:20;;;;;;;4.57;2.40;;;22.70;37.60;;;;;;5065748;28;20425;-70
2022/05/12 07:58:46;;;;;;;4.10;2.50;;;22.70;35.90;;;;;;5067682;28;20809;-70
2022/05/12 08:01:12;;;;;;;3.33;2.20;;;22.70;34.40;;;;;;5066181;28;20897;-70
2022/05/12 08:03:39;;;;;;;9.90;2.60;;;22.70;35.70;;;;;;5065937;28;20418;-70
2022/05/12 08:06:05;;;;;;;6.30;2.63;;;23.00;34.00;;;;;;5065823;28;20494;-70
2022/05/12 08:08:31;;;;;;;5.53;2.63;;;23.20;30.10;;;;;;5063561;28;20619;-70
2022/05/12 08:10:57;;;;;;;5.27;2.40;;;23.60;27.60;;;;;;5064753;28;20413;-70
2022/05/12 08:13:23;;;;;;;5.13;2.40;;;23.90;26.70;;;;;;5059302;28;20402;-70
2022/05/12 08:15:50;;;;;;;13.37;2.40;;;24.30;23.30;;;;;;5064925;28;20184;-70
2022/05/12 08:18:19;;;;;;;4.47;2.17;;;24.40;22.10;;;;;;5065307;28;20225;-70
2022/05/12 08:20:45;;;;;;;4.47;2.10;;;24.40;19.10;;;;;;5066841;28;20493;-70
2022/05/12 08:23:11;;;;;;;4.27;2.00;;;24.60;18.70;;;;;;5067194;28;20418;-70
2022/05/12 08:25:38;;;;;;;4.90;2.20;;;25.30;13.40;;;;;;5066046;28;20406;-70
2022/05/12 08:28:05;;;;;;;4.40;2.20;;;25.30;14.00;;;;;;5065938;28;20788;-70
2022/05/12 08:30:31;;;;;;;5.73;2.40;;;25.40;10.40;;;;;;5065752;28;20501;-70
2022/05/12 08:32:58;;;;;;;6.00;2.50;;;25.10;12.30;;;;;;5066335;28;20433;-70
2022/05/12 08:35:24;;;;;;;6.33;2.20;;;24.50;13.00;;;;;;5066979;28;20758;-69
2022/05/12 08:37:50;;;;;;;8.40;2.10;;;24.60;15.30;;;;;;5067380;28;20911;-70
2022/05/12 08:40:30;;;;;;;3.40;2.17;;;24.70;11.80;;;;;;5067188;28;20418;-70
2022/05/12 08:43:05;;;;;;;3.80;2.03;;;24.40;10.70;;;;;;5067034;28;20535;-70
2022/05/12 08:45:31;;;;;;;5.27;2.10;;;24.20;11.30;;;;;;5065765;28;20430;-70
2022/05/12 08:47:58;;;;;;;5.90;2.60;;;24.20;14.00;;;;;;5048531;28;20468;-70
2022/05/12 08:50:28;;;;;;;3.93;2.17;;;24.40;14.20;;;;;;5032572;28;20429;-70
2022/05/12 08:53:01;;;;;;;6.17;2.07;;;24.40;13.50;;;;;;5067035;28;20412;-70
2022/05/12 08:55:45;;;;;;;4.07;2.30;;;24.50;15.20;;;;;;5065101;28;20410;-70
2022/05/12 08:58:22;;;;;;;10.43;2.20;;;24.80;11.60;;;;;;5066055;28;20435;-70
2022/05/12 09:01:00;;;;;;;4.93;2.30;;;25.00;10.30;;;;;;5066536;28;20412;-70
2022/05/12 09:03:54;;;;;;;5.27;2.03;;;25.40;10.30;;;;;;5067336;28;20879;-70
2022/05/12 09:06:23;;;;;;;4.90;2.07;;;25.80;8.10;;;;;;5066585;28;20461;-70
2022/05/12 09:09:16;;;;;;;6.43;2.20;;;25.90;6.70;;;;;;5067158;28;20916;-69
2022/05/12 09:12:11;;;;;;;4.73;2.20;;;25.60;6.70;;;;;;5064885;28;20414;-70
2022/05/12 09:14:49;;;;;;;5.77;1.97;;;25.30;7.30;;;;;;5065720;28;20429;-70
2022/05/12 09:17:21;;;;;;;4.43;2.00;;;25.30;6.20;;;;;;5049269;28;20429;-71
2022/05/12 09:19:46;;;;;;;5.80;2.37;;;25.50;4.60;;;;;;5065902;28;20930;-70
2022/05/12 09:22:12;;;;;;;4.80;1.80;;;25.80;3.60;;;;;;5064658;28;20410;-70
2022/05/12 09:24:38;;;;;;;5.00;2.20;;;25.80;1.00;;;;;;5066935;28;20179;-70
2022/05/12 09:27:12;;;;;;;30.87;2.20;;;26.10;1.00;;;;;;5069930;28;20689;-71
2022/05/12 09:29:46;;;;;;;6.93;1.73;;;26.30;1.90;;;;;;5052242;28;20217;-70
2022/05/12 09:32:11;;;;;;;3.90;2.10;;;26.40;1.80;;;;;;5068832;28;20593;-70
2022/05/12 09:35:02;;;;;;;3.90;2.00;;;26.00;1.00;;;;;;5070423;28;20410;-70
2022/05/12 09:37:28;;;;;;;3.63;1.77;;;25.60;1.00;;;;;;5053742;28;20191;-70
2022/05/12 09:40:14;;;;;;;6.10;1.90;;;25.40;1.00;;;;;;5051528;28;20428;-70
2022/05/12 09:42:45;;;;;;;4.90;2.00;;;25.30;1.00;;;;;;5067677;28;20921;-71
2022/05/12 09:45:28;;;;;;;4.00;2.10;;;25.40;1.90;;;;;;5069934;28;20435;-70
2022/05/12 09:48:27;;;;;;;2.97;1.90;;;25.30;1.00;;;;;;5051877;28;20456;-70
2022/05/12 09:50:56;;;;;;;5.07;2.00;;;25.90;1.00;;;;;;5069310;28;20402;-70
2022/05/12 09:53:30;;;;;;;5.10;1.90;;;27.00;1.00;;;;;;5069923;28;20482;-70
2022/05/12 09:56:29;;;;;;;6.27;2.17;;;28.00;1.00;;;;;;5069569;28;20191;-70
2022/05/12 09:59:14;;;;;;;7.70;1.90;;;27.90;1.00;;;;;;5066321;28;20189;-71
2022/05/12 10:01:53;;;;;;;3.57;1.70;;;28.20;1.00;;;;;;5067075;28;20160;-70
2022/05/12 10:10:24;;;;;;;5.00;1.90;;;27.00;1.00;;;;;;5069455;28;20229;-70
2022/05/12 10:12:59;;;;;;;5.37;2.03;;;27.40;1.00;;;;;;5069466;28;20176;-71
2022/05/12 10:15:30;;;;;;;7.88;1.75;;;30.70;1.00;;;;;;5050790;28;20262;-69
2022/05/12 10:18:04;;;;;;;3.40;1.85;;;30.80;1.00;;;;;;5066804;28;20222;-71
2022/05/12 10:20:32;;;;;;;3.22;1.85;;;31.30;1.00;;;;;;5069123;28;20172;-70
2022/05/12 10:23:05;;;;;;;7.75;2.13;;;32.30;1.00;;;;;;5067726;28;20542;-71
2022/05/12 10:25:57;;;;;;;6.82;1.80;;;30.50;1.00;;;;;;5067694;28;20201;-71
2022/05/12 10:28:48;;;;;;;3.75;1.90;;;30.20;1.00;;;;;;5069683;28;20203;-71
2022/05/12 10:31:43;;;;;;;3.55;2.05;;;30.10;1.00;;;;;;5067670;28;20598;-71
2022/05/12 10:34:31;;;;;;;4.55;1.90;;;32.20;1.00;;;;;;5067985;28;20191;-70
2022/05/12 10:37:11;;;;;;;6.05;1.75;;;32.70;1.00;;;;;;5067977;28;20180;-70
2022/05/12 10:40:32;;;;;;;6.40;1.60;;;30.80;1.00;;;;;;5067435;28;20168;-70
2022/05/12 10:43:30;;;;;;;3.67;1.83;;;30.30;1.00;;;;;;5050461;28;20244;-71
2022/05/12 10:46:06;;;;;;;4.30;2.10;;;31.50;1.00;;;;;;5022520;28;20200;-71
2022/05/12 10:48:44;;;;;;;4.05;1.70;;;32.10;1.00;;;;;;5069300;28;20195;-71
2022/05/12 10:51:19;;;;;;;7.32;1.80;;;31.60;1.00;;;;;;5067725;28;20680;-70
2022/05/12 10:54:10;;;;;;;4.47;1.95;;;29.80;1.00;;;;;;5067339;28;20178;-70
2022/05/12 10:57:03;;;;;;;3.50;1.50;;;29.30;1.00;;;;;;5066469;28;20239;-71
2022/05/12 10:59:54;;;;;;;4.95;2.15;;;28.40;1.00;;;;;;5068230;28;20239;-70
2022/05/12 11:02:42;;;;;;;5.10;2.00;;;28.10;1.00;;;;;;5047341;28;20169;-71
2022/05/12 11:05:25;;;;;;;4.72;1.60;;;30.00;1.00;;;;;;5047513;28;20176;-70
2022/05/12 11:08:17;;;;;;;5.30;1.83;;;32.00;1.00;;;;;;5047429;28;20357;-71
2022/05/12 11:10:45;;;;;;;4.47;1.88;;;32.60;1.00;;;;;;5064128;28;20339;-71
2022/05/12 11:13:32;;;;;;;3.08;1.67;;;33.90;1.00;;;;;;5068172;28;20445;-71
2022/05/12 11:16:05;;;;;;;5.38;1.70;;;34.50;1.00;;;;;;5067867;28;20227;-70
2022/05/12 11:18:43;;;;;;;2.88;1.75;;;33.90;1.00;;;;;;5068735;28;20172;-71
2022/05/12 11:21:17;;;;;;;4.32;1.50;;;34.40;1.00;;;;;;5066906;28;20643;-71
2022/05/12 11:23:53;;;;;;;7.18;1.98;;;35.80;1.00;;;;;;5067359;28;20225;-71
2022/05/12 11:26:40;;;;;;;3.83;1.90;;;34.60;1.00;;;;;;5067349;28;20218;-71
2022/05/12 11:29:41;;;;;;;5.03;2.22;;;32.50;1.00;;;;;;5068391;28;20424;-70
2022/05/12 11:32:33;;;;;;;4.63;1.80;;;31.40;1.00;;;;;;5051800;28;20217;-70
2022/05/12 11:35:18;;;;;;;4.18;1.75;;;31.50;1.00;;;;;;5068380;28;20183;-70
2022/05/12 11:37:44;;;;;;;3.38;1.67;;;33.10;1.00;;;;;;5067630;28;20203;-71
2022/05/12 11:40:34;;;;;;;3.88;1.63;;;32.60;1.00;;;;;;5067539;28;20172;-71
2022/05/12 11:46:11;;;;;;;4.88;1.80;;;34.90;1.00;;;;;;5066357;28;20218;-72
2022/05/12 11:49:01;;;;;;;3.38;1.73;;;33.90;1.00;;;;;;5050309;28;20199;-71
2022/05/12 11:51:48;;;;;;;4.07;1.63;;;34.10;1.00;;;;;;5053367;28;20184;-71
2022/05/12 11:54:34;;;;;;;5.70;1.90;;;34.70;1.00;;;;;;5067947;28;20560;-71
2022/05/12 11:57:02;;;;;;;3.92;1.80;;;35.60;1.00;;;;;;5067120;28;20200;-71
2022/05/12 11:59:31;;;;;;;3.10;1.63;;;36.40;1.00;;;;;;5049513;28;20171;-70
2022/05/12 12:02:04;;;;;;;3.30;1.80;;;36.40;1.00;;;;;;5065875;28;20168;-71
2022/05/12 12:04:49;;;;;;;3.30;1.40;;;35.90;1.00;;;;;;5068147;28;20186;-71
2022/05/12 12:07:21;;;;;;;4.85;1.60;;;36.20;1.00;;;;;;5067080;28;20253;-71
2022/05/12 12:09:46;;;;;;;3.58;1.70;;;35.50;1.00;;;;;;5067482;28;20171;-71
2022/05/12 12:12:41;;;;;;;6.40;1.70;;;34.60;1.00;;;;;;5066570;28;20194;-71
2022/05/12 12:15:08;;;;;;;4.53;1.63;;;34.70;1.00;;;;;;5067343;28;20228;-71
2022/05/12 12:17:37;;;;;;;3.25;1.45;;;33.60;1.00;;;;;;5064873;28;20200;-71
2022/05/12 12:20:09;;;;;;;10.30;1.90;;;31.80;1.00;;;;;;5058639;28;20318;-71
2022/05/12 12:22:40;;;;;;;4.40;1.65;;;31.50;1.00;;;;;;5066278;28;20152;-70
2022/05/12 12:25:08;;;;;;;7.45;1.98;;;33.40;1.00;;;;;;5065921;28;20749;-70
2022/05/12 12:27:52;;;;;;;3.58;1.73;;;33.50;1.00;;;;;;5065733;28;20234;-71
2022/05/12 12:30:17;;;;;;;3.50;1.73;;;33.30;1.00;;;;;;5067521;28;20823;-71
2022/05/12 12:32:47;;;;;;;4.22;1.95;;;34.60;1.00;;;;;;5065791;28;20202;-71
2022/05/12 12:35:13;;;;;;;5.63;1.48;;;35.50;1.00;;;;;;5049918;28;20178;-71
2022/05/12 12:37:48;;;;;;;4.32;1.88;;;36.60;1.00;;;;;;5066844;28;20268;-71
2022/05/12 12:40:32;;;;;;;4.10;1.90;;;36.30;1.00;;;;;;5067134;28;20175;-71
2022/05/12 12:43:01;;;;;;;4.50;1.60;;;36.40;1.00;;;;;;5066690;28;20172;-71
2022/05/12 12:45:26;;;;;;;7.60;1.90;;;36.60;1.00;;;;;;5065124;28;20222;-71
2022/05/12 12:47:52;;;;;;;4.05;1.65;;;36.50;1.00;;;;;;5064947;28;20196;-71
2022/05/12 12:50:43;;;;;;;4.05;1.70;;;36.70;1.00;;;;;;5067693;28;20175;-71
2022/05/12 12:56:30;;;;;;;5.30;1.58;;;36.50;1.00;;;;;;5066169;28;20160;-71
2022/05/12 12:56:37;;;;;;;4.72;2.00;;;35.70;1.00;;;;;;5059660;28;20603;-71
2022/05/12 12:59:24;;;;;;;5.38;1.70;;;34.90;1.00;;;;;;5067360;28;20253;-71
2022/05/12 13:01:55;;;;;;;3.65;1.42;;;34.00;1.00;;;;;;5050817;28;20609;-71
2022/05/12 13:04:28;;;;;;;6.40;1.95;;;33.90;1.00;;;;;;5069445;28;20192;-71
2022/05/12 13:07:00;;;;;;;4.55;1.75;;;33.30;1.00;;;;;;5068828;28;20192;-71
2022/05/12 13:09:32;;;;;;;3.95;1.90;;;33.60;1.00;;;;;;5070986;28;20179;-71
2022/05/12 13:12:07;;;;;;;6.32;1.55;;;33.70;1.00;;;;;;5067824;28;20203;-71
2022/05/12 13:14:38;;;;;;;2.70;1.63;;;33.40;1.00;;;;;;5070673;28;20267;-70
2022/05/12 13:17:05;;;;;;;4.88;1.73;;;33.30;1.00;;;;;;5068283;28;20184;-71
2022/05/12 13:19:39;;;;;;;3.70;1.80;;;32.80;1.00;;;;;;5071045;28;20160;-71
2022/05/12 13:22:07;;;;;;;4.95;2.00;;;32.50;1.00;;;;;;5069452;28;20172;-71
2022/05/12 13:24:35;;;;;;;5.97;2.17;;;32.50;1.00;;;;;;5069566;28;20166;-71
2022/05/12 13:27:04;;;;;;;5.47;1.50;;;32.70;1.00;;;;;;5069844;28;20670;-71